createdAt,value
2022-11-15T00:01:25.963Z,86.50
2022-11-15T00:03:54.245Z,86.70
2022-11-15T00:06:22.542Z,86.60
2022-11-15T00:08:50.851Z,86.80
2022-11-15T00:11:19.147Z,87.10
2022-11-15T00:13:49.039Z,87.20
2022-11-15T00:16:17.685Z,87.60
2022-11-15T00:18:50.413Z,87.50
2022-11-15T00:21:19.895Z,87.50
2022-11-15T00:23:48.227Z,87.60
2022-11-15T00:26:17.757Z,87.40
2022-11-15T00:28:46.196Z,87.40
2022-11-15T00:31:16.536Z,87.30
2022-11-15T00:33:46.646Z,87.20
2022-11-15T00:36:14.981Z,87.20
2022-11-15T00:38:43.218Z,87.10
2022-11-15T00:41:11.587Z,87.10
2022-11-15T00:43:40.846Z,87.10
2022-11-15T00:46:10.737Z,86.90
2022-11-15T00:48:40.500Z,86.70
2022-11-15T00:51:08.789Z,86.70
2022-11-15T00:53:37.302Z,86.70
2022-11-15T00:56:06.050Z,86.80
2022-11-15T00:58:34.404Z,86.70
2022-11-15T01:01:09.969Z,86.70
2022-11-15T01:03:41.337Z,86.80
2022-11-15T01:06:10.848Z,86.80
2022-11-15T01:08:40.314Z,87.00
2022-11-15T01:11:12.882Z,87.10
2022-11-15T01:13:42.060Z,87.20
2022-11-15T01:16:15.155Z,87.20
2022-11-15T01:18:44.914Z,87.30
2022-11-15T01:21:16.570Z,87.40
2022-11-15T01:23:47.226Z,87.50
2022-11-15T01:26:17.567Z,87.60
2022-11-15T01:28:45.813Z,87.70
2022-11-15T01:31:18.492Z,87.80
2022-11-15T01:33:49.470Z,87.90
2022-11-15T01:36:22.726Z,87.80
2022-11-15T01:38:56.410Z,87.80
2022-11-15T01:41:28.812Z,87.80
2022-11-15T01:43:59.797Z,87.90
2022-11-15T01:46:32.918Z,87.90
2022-11-15T01:49:11.138Z,87.80
2022-11-15T01:51:39.966Z,87.80
2022-11-15T01:54:12.929Z,87.70
2022-11-15T01:56:49.413Z,87.70
2022-11-15T01:59:17.942Z,87.70
2022-11-15T02:01:46.482Z,87.70
2022-11-15T02:04:22.701Z,87.90
2022-11-15T02:06:51.774Z,87.90
2022-11-15T02:09:21.026Z,88.00
2022-11-15T02:11:51.149Z,88.10
2022-11-15T02:14:22.323Z,88.00
2022-11-15T02:16:57.797Z,88.10
2022-11-15T02:20:48.163Z,88.10
2022-11-15T02:23:56.177Z,88.20
2022-11-15T02:27:10.943Z,88.20
2022-11-15T02:30:16.002Z,88.20
2022-11-15T02:32:50.620Z,88.20
2022-11-15T02:35:32.435Z,88.30
2022-11-15T02:38:08.978Z,88.30
2022-11-15T02:40:47.745Z,88.40
2022-11-15T02:43:50.599Z,88.40
2022-11-15T02:46:46.292Z,88.40
2022-11-15T02:49:17.218Z,88.70
2022-11-15T02:51:49.674Z,88.60
2022-11-15T02:54:24.887Z,88.50
2022-11-15T02:56:58.634Z,88.60
2022-11-15T03:00:01.120Z,88.40
2022-11-15T03:02:49.917Z,88.30
2022-11-15T03:05:27.429Z,88.20
2022-11-15T03:08:03.557Z,88.20
2022-11-15T03:10:45.815Z,88.30
2022-11-15T03:13:24.243Z,88.40
2022-11-15T03:16:02.032Z,88.40
2022-11-15T03:18:36.453Z,88.40
2022-11-15T03:21:08.949Z,88.60
2022-11-15T03:23:39.719Z,88.90
2022-11-15T03:26:12.014Z,89.00
2022-11-15T03:28:45.566Z,89.40
2022-11-15T03:31:33.840Z,89.60
2022-11-15T03:34:08.027Z,90.00
2022-11-15T03:36:37.016Z,90.40
2022-11-15T03:39:09.924Z,90.90
2022-11-15T03:41:46.872Z,91.00
2022-11-15T03:44:24.027Z,91.10
2022-11-15T03:47:00.982Z,91.20
2022-11-15T03:49:36.103Z,91.00
2022-11-15T03:52:06.382Z,91.10
2022-11-15T03:54:34.730Z,91.10
2022-11-15T03:57:02.993Z,91.20
2022-11-15T03:59:31.219Z,91.20
2022-11-15T04:01:59.507Z,91.20
2022-11-15T04:04:27.950Z,91.30
2022-11-15T04:06:57.612Z,91.40
2022-11-15T04:09:25.904Z,91.30
2022-11-15T04:11:54.191Z,91.60
2022-11-15T04:14:22.552Z,91.70
2022-11-15T04:16:50.819Z,91.70
2022-11-15T04:19:36.486Z,91.80
2022-11-15T04:22:23.557Z,92.00
2022-11-15T04:24:51.758Z,92.00
2022-11-15T04:27:20.022Z,91.90
2022-11-15T04:29:49.029Z,92.00
2022-11-15T04:32:17.258Z,92.00
2022-11-15T04:34:45.499Z,91.90
2022-11-15T04:37:14.169Z,92.00
2022-11-15T04:39:42.903Z,91.90
2022-11-15T04:42:11.851Z,92.00
2022-11-15T04:44:40.419Z,92.00
2022-11-15T04:47:08.703Z,91.90
2022-11-15T04:49:36.951Z,91.80
2022-11-15T04:52:05.663Z,91.80
2022-11-15T04:54:35.346Z,92.00
2022-11-15T04:57:03.560Z,92.00
2022-11-15T04:59:31.756Z,92.00
2022-11-15T05:02:00.068Z,92.00
2022-11-15T05:04:27.707Z,91.90
2022-11-15T05:06:56.014Z,91.90
2022-11-15T05:09:24.639Z,92.00
2022-11-15T05:11:54.391Z,92.00
2022-11-15T05:14:22.682Z,91.90
2022-11-15T05:16:51.918Z,92.00
2022-11-15T05:19:20.144Z,91.90
2022-11-15T05:21:49.176Z,92.00
2022-11-15T05:24:17.477Z,91.90
2022-11-15T05:26:45.725Z,91.90
2022-11-15T05:29:15.374Z,91.80
2022-11-15T05:31:44.322Z,91.80
2022-11-15T05:34:12.719Z,91.80
2022-11-15T05:36:45.751Z,91.70
2022-11-15T05:39:14.313Z,91.70
2022-11-15T05:41:46.626Z,91.60
2022-11-15T05:44:20.247Z,91.60
2022-11-15T05:46:50.643Z,91.60
2022-11-15T05:49:22.551Z,91.50
2022-11-15T05:51:52.152Z,91.60
2022-11-15T05:54:22.444Z,91.50
2022-11-15T05:56:51.783Z,91.60
2022-11-15T05:59:22.128Z,91.60
2022-11-15T06:01:50.773Z,91.60
2022-11-15T06:04:19.091Z,91.60
2022-11-15T06:06:47.386Z,91.60
2022-11-15T06:09:15.641Z,91.60
2022-11-15T06:11:44.071Z,91.60
2022-11-15T06:14:12.341Z,91.60
2022-11-15T06:16:41.940Z,91.60
2022-11-15T06:19:10.319Z,91.60
2022-11-15T06:21:38.742Z,91.60
2022-11-15T06:24:08.650Z,91.70
2022-11-15T06:26:36.976Z,91.60
2022-11-15T06:29:05.966Z,91.70
2022-11-15T06:31:35.520Z,91.60
2022-11-15T06:34:05.133Z,91.70
2022-11-15T06:36:33.395Z,91.70
2022-11-15T06:39:01.653Z,91.60
2022-11-15T06:41:29.931Z,91.60
2022-11-15T06:43:59.594Z,91.70
2022-11-15T06:46:28.149Z,91.80
2022-11-15T06:48:56.924Z,92.00
2022-11-15T06:51:26.587Z,92.20
2022-11-15T06:53:54.905Z,92.40
2022-11-15T06:56:23.352Z,92.30
2022-11-15T06:58:51.598Z,92.30
2022-11-15T07:01:19.933Z,92.20
2022-11-15T07:03:48.203Z,91.90
2022-11-15T07:06:16.520Z,91.80
2022-11-15T07:08:46.721Z,91.80
2022-11-15T07:11:15.679Z,91.70
2022-11-15T07:13:43.882Z,91.60
2022-11-15T07:16:13.185Z,91.70
2022-11-15T07:18:42.573Z,91.70
2022-11-15T07:21:13.637Z,91.70
2022-11-15T07:23:42.283Z,91.60
2022-11-15T07:26:12.000Z,91.60
2022-11-15T07:28:40.544Z,91.60
2022-11-15T07:31:10.547Z,91.50
2022-11-15T07:33:39.192Z,91.50
2022-11-15T07:36:09.815Z,91.40
2022-11-15T07:38:42.838Z,91.40
2022-11-15T07:41:13.066Z,91.40
2022-11-15T07:43:41.374Z,91.30
2022-11-15T07:46:11.162Z,91.30
2022-11-15T07:48:44.636Z,91.30
2022-11-15T07:51:15.536Z,91.30
2022-11-15T07:53:44.228Z,91.30
2022-11-15T07:56:14.334Z,91.30
2022-11-15T07:58:43.125Z,91.30
2022-11-15T08:01:12.640Z,91.20
2022-11-15T08:03:41.206Z,91.20
2022-11-15T08:06:09.623Z,91.20
2022-11-15T08:08:37.972Z,91.20
2022-11-15T08:11:06.637Z,91.30
2022-11-15T08:13:36.610Z,91.30
2022-11-15T08:16:06.660Z,91.10
2022-11-15T08:18:35.139Z,91.00
2022-11-15T08:21:04.110Z,91.00
2022-11-15T08:23:33.400Z,91.00
2022-11-15T08:26:03.785Z,90.90
2022-11-15T08:28:33.031Z,91.00
2022-11-15T08:31:03.470Z,90.80
2022-11-15T08:33:32.962Z,90.50
2022-11-15T08:36:02.922Z,90.50
2022-11-15T08:38:31.764Z,90.40
2022-11-15T08:41:05.427Z,90.40
2022-11-15T08:43:34.349Z,90.30
2022-11-15T08:46:04.292Z,90.20
2022-11-15T08:48:32.846Z,89.90
2022-11-15T08:51:01.328Z,90.00
2022-11-15T08:53:29.640Z,89.80
2022-11-15T08:55:58.005Z,89.40
2022-11-15T08:58:26.408Z,89.50
2022-11-15T09:00:54.662Z,89.40
2022-11-15T09:03:24.257Z,89.30
2022-11-15T09:05:58.048Z,88.80
2022-11-15T09:08:46.506Z,88.30
2022-11-15T09:11:15.633Z,87.90
2022-11-15T09:13:44.078Z,87.60
2022-11-15T09:16:14.217Z,86.80
2022-11-15T09:18:44.137Z,85.50
2022-11-15T09:21:12.708Z,85.20
2022-11-15T09:23:41.337Z,84.40
2022-11-15T09:26:10.041Z,83.50
2022-11-15T09:28:39.333Z,82.90
2022-11-15T09:31:08.529Z,82.90
2022-11-15T09:33:37.065Z,81.50
2022-11-15T09:36:10.038Z,81.90
2022-11-15T09:38:38.704Z,80.60
2022-11-15T09:42:10.008Z,80.80
2022-11-15T09:44:52.828Z,81.20
2022-11-15T09:48:02.528Z,79.40
2022-11-15T09:50:39.168Z,78.90
2022-11-15T09:53:14.388Z,77.30
2022-11-15T09:55:50.280Z,76.80
2022-11-15T09:58:29.341Z,77.10
2022-11-15T10:01:00.471Z,76.70
2022-11-15T10:03:33.721Z,74.20
2022-11-15T10:06:06.379Z,74.70
2022-11-15T10:08:52.739Z,74.40
2022-11-15T10:11:40.942Z,74.50
2022-11-15T10:14:15.120Z,72.40
2022-11-15T10:17:24.613Z,72.70
2022-11-15T10:20:09.853Z,71.30
2022-11-15T10:22:42.535Z,71.40
2022-11-15T10:25:25.204Z,71.80
2022-11-15T10:27:58.677Z,71.40
2022-11-15T10:30:35.596Z,70.90
2022-11-15T10:33:22.142Z,71.20
2022-11-15T10:35:50.548Z,71.30
2022-11-15T10:38:21.691Z,70.10
2022-11-15T10:41:08.969Z,69.60
2022-11-15T10:43:37.278Z,69.40
2022-11-15T10:46:45.474Z,67.70
2022-11-15T10:49:20.035Z,66.70
2022-11-15T10:51:51.410Z,67.80
2022-11-15T10:54:25.915Z,65.80
2022-11-15T10:56:59.717Z,67.60
2022-11-15T10:59:34.883Z,67.10
2022-11-15T11:02:33.691Z,67.10
2022-11-15T11:05:03.243Z,65.20
2022-11-15T11:07:35.561Z,66.20
2022-11-15T11:10:49.799Z,64.20
2022-11-15T11:13:28.428Z,66.80
2022-11-15T11:16:08.192Z,66.30
2022-11-15T11:18:43.921Z,67.50
2022-11-15T11:21:17.321Z,68.30
2022-11-15T11:23:55.672Z,67.20
2022-11-15T11:26:44.676Z,66.10
2022-11-15T11:29:33.040Z,66.30
2022-11-15T11:32:10.893Z,67.50
2022-11-15T11:34:52.859Z,66.20
2022-11-15T11:37:32.157Z,64.40
2022-11-15T11:40:18.623Z,63.80
2022-11-15T11:43:00.215Z,64.00
2022-11-15T11:46:07.548Z,63.20
2022-11-15T11:48:44.981Z,64.20
2022-11-15T11:51:21.215Z,63.80
2022-11-15T11:53:58.741Z,62.10
2022-11-15T11:56:31.347Z,61.60
2022-11-15T11:59:08.627Z,61.70
2022-11-15T12:01:43.982Z,61.50
2022-11-15T12:04:18.698Z,61.70
2022-11-15T12:06:52.879Z,61.40
2022-11-15T12:09:33.581Z,60.30
2022-11-15T12:12:11.500Z,60.20
2022-11-15T12:14:46.713Z,60.10
2022-11-15T12:17:25.041Z,60.60
2022-11-15T12:19:54.901Z,60.20
2022-11-15T12:22:26.619Z,60.60
2022-11-15T12:25:01.574Z,59.20
2022-11-15T12:27:37.473Z,60.40
2022-11-15T12:30:13.542Z,59.80
2022-11-15T12:32:55.657Z,59.10
2022-11-15T12:35:34.775Z,59.20
2022-11-15T12:38:03.346Z,60.00
2022-11-15T12:40:38.774Z,59.70
2022-11-15T12:43:43.922Z,60.20
2022-11-15T12:46:42.237Z,60.40
2022-11-15T12:49:46.490Z,59.50
2022-11-15T12:52:15.055Z,60.30
2022-11-15T12:55:02.944Z,59.40
2022-11-15T12:57:43.821Z,60.00
2022-11-15T13:00:45.938Z,60.20
2022-11-15T13:03:27.061Z,60.60
2022-11-15T13:06:12.363Z,60.60
2022-11-15T13:08:50.700Z,60.80
2022-11-15T13:11:53.566Z,61.20
2022-11-15T13:14:52.114Z,61.70
2022-11-15T13:17:34.342Z,60.20
2022-11-15T13:20:29.424Z,61.30
2022-11-15T13:23:10.453Z,61.40
2022-11-15T13:26:09.138Z,60.90
2022-11-15T13:28:41.690Z,59.90
2022-11-15T13:31:29.946Z,59.80
2022-11-15T13:34:02.476Z,61.60
2022-11-15T13:36:35.138Z,61.70
2022-11-15T13:39:07.998Z,61.90
2022-11-15T13:41:38.361Z,61.00
2022-11-15T13:44:22.129Z,62.00
2022-11-15T13:46:50.384Z,62.30
2022-11-15T13:49:18.610Z,62.20
2022-11-15T13:51:50.298Z,63.10
2022-11-15T13:54:26.159Z,63.20
2022-11-15T13:56:59.163Z,63.90
2022-11-15T13:59:29.699Z,63.50
2022-11-15T14:02:01.974Z,64.00
2022-11-15T14:04:34.761Z,63.00
2022-11-15T14:07:04.942Z,64.00
2022-11-15T14:09:39.829Z,63.70
2022-11-15T14:12:33.030Z,63.00
2022-11-15T14:15:03.491Z,63.20
2022-11-15T14:17:45.646Z,63.50
2022-11-15T14:20:34.157Z,64.10
2022-11-15T14:23:04.639Z,64.70
2022-11-15T14:25:36.134Z,65.30
2022-11-15T14:28:17.989Z,65.40
2022-11-15T14:30:51.122Z,66.20
2022-11-15T14:33:26.075Z,65.80
2022-11-15T14:35:55.478Z,66.40
2022-11-15T14:38:23.707Z,67.50
2022-11-15T14:40:54.973Z,67.30
2022-11-15T14:43:23.604Z,67.50
2022-11-15T14:45:51.882Z,67.80
2022-11-15T14:48:20.323Z,67.80
2022-11-15T14:50:48.589Z,68.40
2022-11-15T14:53:19.810Z,68.70
2022-11-15T14:55:48.067Z,68.80
2022-11-15T14:58:17.674Z,69.20
2022-11-15T15:00:46.012Z,69.60
2022-11-15T15:03:14.268Z,70.00
2022-11-15T15:05:44.626Z,70.30
2022-11-15T15:08:13.570Z,70.50
2022-11-15T15:10:45.829Z,70.80
2022-11-15T15:13:21.213Z,71.00
2022-11-15T15:15:50.871Z,71.20
2022-11-15T15:18:19.925Z,71.40
2022-11-15T15:21:01.080Z,71.50
2022-11-15T15:23:31.814Z,71.90
2022-11-15T15:26:00.364Z,71.90
2022-11-15T15:28:34.220Z,72.00
2022-11-15T15:31:03.340Z,72.10
2022-11-15T15:33:31.637Z,72.00
2022-11-15T15:36:00.195Z,72.10
2022-11-15T15:38:28.572Z,72.20
2022-11-15T15:40:56.928Z,72.70
2022-11-15T15:43:25.230Z,72.60
2022-11-15T15:45:54.988Z,72.60
2022-11-15T15:48:23.377Z,72.80
2022-11-15T15:50:51.763Z,72.80
2022-11-15T15:53:20.115Z,72.90
2022-11-15T15:55:48.518Z,73.20
2022-11-15T15:58:16.769Z,73.30
2022-11-15T16:00:45.000Z,73.30
2022-11-15T16:03:14.571Z,73.40
2022-11-15T16:05:42.936Z,73.30
2022-11-15T16:08:20.460Z,73.40
2022-11-15T16:10:49.078Z,73.40
2022-11-15T16:13:18.456Z,73.20
2022-11-15T16:15:54.728Z,73.50
2022-11-15T16:18:24.406Z,73.40
2022-11-15T16:20:57.508Z,73.60
2022-11-15T16:23:25.838Z,73.70
2022-11-15T16:25:56.765Z,73.70
2022-11-15T16:28:31.367Z,73.80
2022-11-15T16:31:04.829Z,74.00
2022-11-15T16:33:34.952Z,74.20
2022-11-15T16:36:03.701Z,74.10
2022-11-15T16:38:32.783Z,74.40
2022-11-15T16:41:01.383Z,74.40
2022-11-15T16:43:29.663Z,74.70
2022-11-15T16:45:57.938Z,74.60
2022-11-15T16:48:28.255Z,74.80
2022-11-15T16:50:59.399Z,74.90
2022-11-15T16:53:28.857Z,75.20
2022-11-15T16:55:58.055Z,75.70
2022-11-15T16:58:26.606Z,76.00
2022-11-15T17:00:56.659Z,75.90
2022-11-15T17:03:26.754Z,76.10
2022-11-15T17:06:00.731Z,76.60
2022-11-15T17:08:28.997Z,77.00
2022-11-15T17:10:57.246Z,77.20
2022-11-15T17:13:25.583Z,77.50
2022-11-15T17:16:06.701Z,77.70
2022-11-15T17:18:35.645Z,78.30
2022-11-15T17:21:11.910Z,78.40
2022-11-15T17:23:40.460Z,78.70
2022-11-15T17:26:28.812Z,79.20
2022-11-15T17:28:58.530Z,79.40
2022-11-15T17:31:27.090Z,80.00
2022-11-15T17:33:55.354Z,80.50
2022-11-15T17:36:24.966Z,80.60
2022-11-15T17:38:58.054Z,80.90
2022-11-15T17:41:27.890Z,81.40
2022-11-15T17:43:59.119Z,81.90
2022-11-15T17:46:28.791Z,82.30
2022-11-15T17:48:58.720Z,82.90
2022-11-15T17:51:28.357Z,83.70
2022-11-15T17:53:57.510Z,84.00
2022-11-15T17:56:28.283Z,84.60
2022-11-15T17:58:59.632Z,85.10
2022-11-15T18:01:30.238Z,85.60
2022-11-15T18:04:01.944Z,86.00
2022-11-15T18:06:34.296Z,86.40
2022-11-15T18:09:03.627Z,86.80
2022-11-15T18:11:34.305Z,87.20
2022-11-15T18:14:04.935Z,87.50
2022-11-15T18:16:35.997Z,87.60
2022-11-15T18:19:08.809Z,87.80
2022-11-15T18:21:56.305Z,87.80
2022-11-15T18:24:25.178Z,87.80
2022-11-15T18:26:53.431Z,88.10
2022-11-15T18:29:24.474Z,88.20
2022-11-15T18:31:55.604Z,88.40
2022-11-15T18:34:25.553Z,88.60
2022-11-15T18:36:55.486Z,88.70
2022-11-15T18:39:23.742Z,88.80
2022-11-15T18:41:52.366Z,89.00
2022-11-15T18:44:20.848Z,89.00
2022-11-15T18:46:49.191Z,89.10
2022-11-15T18:49:19.744Z,89.30
2022-11-15T18:51:48.881Z,89.20
2022-11-15T18:54:19.140Z,89.30
2022-11-15T18:56:47.631Z,89.50
2022-11-15T18:59:16.970Z,89.50
2022-11-15T19:01:48.398Z,89.60
2022-11-15T19:04:19.702Z,89.60
2022-11-15T19:06:50.468Z,89.80
2022-11-15T19:09:21.117Z,89.80
2022-11-15T19:11:52.183Z,89.80
2022-11-15T19:14:24.193Z,90.00
2022-11-15T19:16:53.194Z,90.10
2022-11-15T19:19:23.430Z,90.30
2022-11-15T19:21:52.066Z,90.30
2022-11-15T19:24:22.081Z,90.30
2022-11-15T19:26:50.436Z,90.40
2022-11-15T19:29:19.108Z,90.50
2022-11-15T19:31:48.751Z,90.50
2022-11-15T19:34:17.954Z,90.60
2022-11-15T19:36:46.706Z,90.80
2022-11-15T19:39:18.506Z,90.90
2022-11-15T19:41:48.263Z,90.90
2022-11-15T19:44:16.921Z,91.10
2022-11-15T19:46:45.366Z,91.10
2022-11-15T19:49:13.971Z,91.10
2022-11-15T19:51:45.145Z,91.20
2022-11-15T19:54:13.723Z,91.30
2022-11-15T19:56:42.116Z,91.30
2022-11-15T19:59:13.598Z,91.30
2022-11-15T20:01:42.661Z,91.40
2022-11-15T20:04:11.392Z,91.40
2022-11-15T20:06:43.748Z,91.50
2022-11-15T20:09:15.267Z,91.50
2022-11-15T20:11:43.805Z,91.50
2022-11-15T20:14:13.947Z,91.60
2022-11-15T20:16:42.651Z,91.70
2022-11-15T20:19:12.514Z,91.60
2022-11-15T20:21:41.223Z,91.60
2022-11-15T20:24:10.107Z,91.70
2022-11-15T20:26:38.927Z,91.70
2022-11-15T20:29:08.488Z,91.70
2022-11-15T20:31:38.325Z,91.70
2022-11-15T20:34:06.627Z,91.80
2022-11-15T20:36:34.981Z,91.80
2022-11-15T20:39:03.404Z,91.80
2022-11-15T20:41:31.746Z,91.90
2022-11-15T20:44:02.956Z,91.90
2022-11-15T20:46:31.293Z,91.90
2022-11-15T20:49:01.146Z,92.00
2022-11-15T20:51:29.523Z,92.00
2022-11-15T20:53:57.892Z,92.00
2022-11-15T20:56:26.297Z,92.10
2022-11-15T20:58:54.898Z,92.10
2022-11-15T21:01:24.799Z,92.10
2022-11-15T21:03:55.417Z,92.10
2022-11-15T21:06:26.832Z,92.20
2022-11-15T21:09:16.342Z,92.20
2022-11-15T21:12:02.350Z,92.30
2022-11-15T21:14:31.149Z,92.30
2022-11-15T21:16:59.525Z,92.40
2022-11-15T21:19:32.637Z,92.50
2022-11-15T21:22:06.956Z,92.50
2022-11-15T21:24:35.236Z,92.50
2022-11-15T21:27:03.609Z,92.60
2022-11-15T21:29:37.568Z,92.60
2022-11-15T21:32:08.277Z,92.70
2022-11-15T21:34:37.188Z,92.70
2022-11-15T21:37:06.917Z,92.70
2022-11-15T21:39:35.197Z,92.80
2022-11-15T21:42:03.538Z,92.80
2022-11-15T21:44:32.047Z,92.90
2022-11-15T21:47:00.338Z,93.00
2022-11-15T21:49:28.584Z,93.00
2022-11-15T21:51:56.879Z,93.00
2022-11-15T21:54:26.518Z,93.10
2022-11-15T21:56:54.845Z,93.10
2022-11-15T21:59:23.199Z,93.20
2022-11-15T22:02:09.178Z,93.20
2022-11-15T22:04:37.477Z,93.20
2022-11-15T22:07:05.874Z,93.20
2022-11-15T22:09:35.577Z,93.30
2022-11-15T22:12:04.029Z,93.30
2022-11-15T22:14:32.236Z,93.30
2022-11-15T22:17:00.701Z,93.40
2022-11-15T22:19:29.010Z,93.40
2022-11-15T22:21:57.306Z,93.40
2022-11-15T22:24:25.799Z,93.40
2022-11-15T22:26:55.425Z,93.40
2022-11-15T22:29:23.669Z,93.40
2022-11-15T22:31:52.029Z,93.40
2022-11-15T22:34:20.302Z,93.40
2022-11-15T22:37:13.545Z,93.50
2022-11-15T22:39:36.824Z,93.40
2022-11-15T22:42:06.582Z,93.50
2022-11-15T22:44:34.876Z,93.50
2022-11-15T22:47:03.175Z,93.50
2022-11-15T22:49:31.457Z,93.50
2022-11-15T22:51:59.738Z,93.60
2022-11-15T22:54:28.884Z,93.60
2022-11-15T22:56:57.081Z,93.60
2022-11-15T22:59:27.343Z,93.60
2022-11-15T23:01:55.598Z,93.60
2022-11-15T23:04:24.037Z,93.60
2022-11-15T23:06:52.349Z,93.70
2022-11-15T23:09:20.654Z,93.70
2022-11-15T23:12:05.980Z,93.70
2022-11-15T23:14:35.706Z,93.70
2022-11-15T23:17:04.120Z,93.70
2022-11-15T23:19:32.473Z,93.70
2022-11-15T23:22:18.064Z,93.70
2022-11-15T23:24:46.427Z,93.70
2022-11-15T23:27:15.616Z,93.70
2022-11-15T23:30:02.836Z,93.80
2022-11-15T23:32:47.932Z,93.70
2022-11-15T23:35:16.660Z,93.80
2022-11-15T23:37:44.985Z,93.80
2022-11-15T23:40:14.294Z,93.90
2022-11-15T23:42:42.586Z,93.90
2022-11-15T23:45:12.672Z,93.90
2022-11-15T23:47:40.965Z,94.00
2022-11-15T23:50:10.131Z,94.00
2022-11-15T23:52:38.443Z,94.00
2022-11-15T23:55:07.923Z,94.00
2022-11-15T23:57:36.211Z,94.00
